Brotas de Macaubas, Brazil
Current Conditions -  °F | °C
As of 11:00 AM on Monday 24 Nov 2014 (Local Time) from SBQV Reporting Station
Drizzle Drizzle  
Wind Chill: 73°   Ceiling: 1200
Heat Index: 73°   Visibility: 6mi
Dew Point: 68°   Wind: 8mph
Humidity: 83%   Direction: 10°N
Pressure: 30.15"   Gusts: NA
Location:  12°S, 42.63°W
Report Text: SBQV 241400Z 01007KT 9999 -DZ FEW006 BKN012 23/20 Q1021
Loading
Personal Weather Stations






























Interactive Weather Map New forecast layout! Learn more

10-Day Weather Forecast

Advertisements
Track Severe Weather on mobile